This is the latest recevied weather packets stored in our database for station/object HS5FXK-3. If no packets are shown the sender has not sent any weather packets the latest 10 day(s).
| Time | Temp. | Humidity | Pressure | Rain* | Wind** | Luminosity | Snow |
|---|---|---|---|---|---|---|---|
| 1777803413 | 37.22° C | 38% | 973 hPa | - | - | 0 W/m² | - |
| 1777802662 | 37.78° C | 34% | 973 hPa | - | - | 0 W/m² | - |
| 1777801749 | 38.89° C | 32% | 973 hPa | - | - | 0 W/m² | - |
| 1777800837 | 38.33° C | 32% | 974 hPa | - | - | 0 W/m² | - |
| 1777799926 | 38.89° C | 34% | 974 hPa | - | - | 0 W/m² | - |
| 1777799014 | 38.89° C | 31% | 974 hPa | - | - | 0 W/m² | - |
| 1777798102 | 40.56° C | 30% | 974 hPa | - | - | 0 W/m² | - |
| 1777797200 | 41.11° C | 28% | 974 hPa | - | - | 0 W/m² | - |
| 1777796578 | 42.78° C | 26% | 974 hPa | - | - | 0 W/m² | - |
| 1777794748 | 40.56° C | 27% | 975 hPa | - | - | 0 W/m² | - |
| 1777793836 | 43.33° C | 25% | 975 hPa | - | - | 0 W/m² | - |
| 1777791752 | 41.67° C | 27% | 976 hPa | - | - | 0 W/m² | - |
| 1777791179 | 41.67° C | 28% | 976 hPa | - | - | 0 W/m² | - |
| 1777790724 | 42.22° C | 28% | 976 hPa | - | - | 0 W/m² | - |
| 1777789348 | 43.89° C | 25% | 976 hPa | - | - | 0 W/m² | - |
| 1777788453 | 43.89° C | 26% | 977 hPa | - | - | 0 W/m² | - |
| 1777787342 | 42.22° C | 27% | 977 hPa | - | - | 0 W/m² | - |
| 1777786610 | 42.78° C | 28% | 977 hPa | - | - | 0 W/m² | - |
| 1777784798 | 40.56° C | 31% | 978 hPa | - | - | 0 W/m² | - |
| 1777783803 | 41.11° C | 30% | 978 hPa | - | - | 0 W/m² | - |
| 1777782879 | 41.67° C | 30% | 979 hPa | - | - | 0 W/m² | - |
| 1777781420 | 39.44° C | 32% | 979 hPa | - | - | 0 W/m² | - |
| 1777780695 | 38.89° C | 34% | 979 hPa | - | - | 0 W/m² | - |
| 1777780260 | 38.89° C | 33% | 979 hPa | - | - | 0 W/m² | - |
| 1777779728 | 38.89° C | 33% | 979 hPa | - | - | 0 W/m² | - |
* Rain since midnight (hover to see other rain measurements)
** Current wind speed in m/s (hover to see current wind gust speed)